createdAt,value
2018-09-05T00:01:00.209Z,99280.45
2018-09-05T00:03:29.221Z,99283.75
2018-09-05T00:05:58.260Z,99296.33
2018-09-05T00:08:27.274Z,99319.36
2018-09-05T00:10:56.292Z,99319.05
2018-09-05T00:13:25.318Z,99323.46
2018-09-05T00:15:55.580Z,99330.59
2018-09-05T00:18:24.697Z,99341.82
2018-09-05T00:20:53.741Z,99347.30
2018-09-05T00:23:22.878Z,99356.64
2018-09-05T00:25:51.851Z,99349.25
2018-09-05T00:28:20.881Z,99348.44
2018-09-05T00:30:49.986Z,99357.73
2018-09-05T00:33:19.149Z,99360.50
2018-09-05T00:35:48.195Z,99362.41
2018-09-05T00:38:17.177Z,99369.50
2018-09-05T00:40:46.208Z,99367.77
2018-09-05T00:43:15.318Z,99375.63
2018-09-05T00:45:44.336Z,99398.46
2018-09-05T00:48:13.361Z,99394.43
2018-09-05T00:50:42.380Z,99396.94
2018-09-05T00:53:11.340Z,99403.83
2018-09-05T00:55:40.466Z,99401.17
2018-09-05T00:58:09.478Z,99395.02
2018-09-05T01:00:38.573Z,99398.84
2018-09-05T01:03:07.617Z,99409.06
2018-09-05T01:05:36.580Z,99419.88
2018-09-05T01:08:05.785Z,99396.75
2018-09-05T01:10:34.797Z,99399.31
2018-09-05T01:13:03.906Z,99404.19
2018-09-05T01:15:33.010Z,99397.07
2018-09-05T01:18:02.137Z,99397.00
2018-09-05T01:20:31.264Z,99402.16
2018-09-05T01:23:00.288Z,99417.19
2018-09-05T01:25:29.313Z,99414.06
2018-09-05T01:27:58.296Z,99413.18
2018-09-05T01:30:28.513Z,99417.70
2018-09-05T01:32:58.976Z,99417.75
2018-09-05T01:35:28.097Z,99407.45
2018-09-05T01:37:57.264Z,99404.19
2018-09-05T01:40:26.412Z,99398.80
2018-09-05T01:42:55.447Z,99403.41
2018-09-05T01:45:24.613Z,99397.61
2018-09-05T01:47:53.625Z,99402.99
2018-09-05T01:50:27.721Z,99393.22
2018-09-05T01:52:56.664Z,99385.97
2018-09-05T01:55:25.637Z,99388.47
2018-09-05T01:57:54.611Z,99397.33
2018-09-05T02:00:28.804Z,99394.61
2018-09-05T02:02:58.029Z,99399.83
2018-09-05T02:05:27.065Z,99395.84
2018-09-05T02:07:56.111Z,99397.75
2018-09-05T02:10:25.217Z,99396.91
2018-09-05T02:12:54.164Z,99394.18
2018-09-05T02:15:23.216Z,99402.97
2018-09-05T02:17:52.405Z,99409.84
2018-09-05T02:20:21.483Z,99419.09
2018-09-05T02:22:50.505Z,99425.92
2018-09-05T02:25:19.528Z,99430.20
2018-09-05T02:27:48.672Z,99430.72
2018-09-05T02:30:17.626Z,99421.42
2018-09-05T02:32:46.763Z,99437.25
2018-09-05T02:35:15.837Z,99438.08
2018-09-05T02:37:45.122Z,99436.47
2018-09-05T02:40:14.319Z,99424.97
2018-09-05T02:42:43.272Z,99417.52
2018-09-05T02:45:12.259Z,99421.84
2018-09-05T02:47:41.375Z,99422.61
2018-09-05T02:50:10.350Z,99428.90
2018-09-05T02:52:39.541Z,99429.24
2018-09-05T02:55:08.591Z,99420.77
2018-09-05T02:57:37.652Z,99409.09
2018-09-05T03:00:06.776Z,99407.19
2018-09-05T03:02:35.801Z,99408.31
2018-09-05T03:05:04.873Z,99409.67
2018-09-05T03:07:33.901Z,99404.80
2018-09-05T03:10:02.901Z,99409.50
2018-09-05T03:12:31.921Z,99405.94
2018-09-05T03:15:00.949Z,99401.20
2018-09-05T03:17:30.004Z,99400.70
2018-09-05T03:19:58.978Z,99409.50
2018-09-05T03:22:27.943Z,99417.44
2018-09-05T03:24:56.977Z,99420.16
2018-09-05T03:27:25.982Z,99433.52
2018-09-05T03:29:55.057Z,99438.98
2018-09-05T03:32:24.035Z,99439.20
2018-09-05T03:34:53.076Z,99441.83
2018-09-05T03:37:22.065Z,99446.92
2018-09-05T03:39:51.087Z,99447.22
2018-09-05T03:42:20.181Z,99450.44
2018-09-05T03:44:49.139Z,99445.86
2018-09-05T03:47:18.187Z,99452.09
2018-09-05T03:49:47.247Z,99446.88
2018-09-05T03:52:16.292Z,99447.12
2018-09-05T03:54:45.317Z,99449.84
2018-09-05T03:57:14.379Z,99447.12
2018-09-05T03:59:43.384Z,99447.70
2018-09-05T04:02:12.360Z,99447.80
2018-09-05T04:04:41.342Z,99443.42
2018-09-05T04:07:10.364Z,99450.53
2018-09-05T04:09:39.397Z,99444.56
2018-09-05T04:12:08.432Z,99442.22
2018-09-05T04:14:37.490Z,99443.60
2018-09-05T04:17:06.492Z,99446.97
2018-09-05T04:19:35.520Z,99446.30
2018-09-05T04:22:04.557Z,99454.89
2018-09-05T04:24:33.586Z,99453.28
2018-09-05T04:27:02.633Z,99463.38
2018-09-05T04:29:31.733Z,99455.53
2018-09-05T04:32:00.829Z,99455.62
2018-09-05T04:34:29.803Z,99454.56
2018-09-05T04:36:58.755Z,99462.80
2018-09-05T04:39:27.717Z,99463.14
2018-09-05T04:41:56.775Z,99460.12
2018-09-05T04:44:25.909Z,99451.39
2018-09-05T04:46:54.917Z,99448.92
2018-09-05T04:49:24.038Z,99454.38
2018-09-05T04:51:53.020Z,99462.86
2018-09-05T04:54:22.016Z,99455.79
2018-09-05T04:56:51.075Z,99464.23
2018-09-05T04:59:20.129Z,99460.56
2018-09-05T05:01:49.156Z,99463.34
2018-09-05T05:04:18.192Z,99465.92
2018-09-05T05:06:47.203Z,99463.38
2018-09-05T05:09:16.230Z,99468.05
2018-09-05T05:11:45.229Z,99473.57
2018-09-05T05:14:14.253Z,99471.85
2018-09-05T05:16:43.418Z,99463.48
2018-09-05T05:19:12.441Z,99463.81
2018-09-05T05:21:41.490Z,99464.08
2018-09-05T05:24:10.436Z,99462.31
2018-09-05T05:26:39.400Z,99468.33
2018-09-05T05:29:08.384Z,99467.42
2018-09-05T05:31:37.480Z,99465.03
2018-09-05T05:34:06.627Z,99465.86
2018-09-05T05:36:35.599Z,99470.88
2018-09-05T05:39:06.968Z,99468.29
2018-09-05T05:41:35.920Z,99465.11
2018-09-05T05:44:04.933Z,99468.31
2018-09-05T05:46:34.166Z,99467.59
2018-09-05T05:49:03.320Z,99466.25
2018-09-05T05:51:32.349Z,99456.70
2018-09-05T05:54:01.519Z,99453.44
2018-09-05T05:56:30.646Z,99456.53
2018-09-05T05:58:59.665Z,99449.54
2018-09-05T06:01:28.770Z,99452.38
2018-09-05T06:03:57.865Z,99458.69
2018-09-05T06:06:26.974Z,99462.02
2018-09-05T06:08:55.976Z,99460.18
2018-09-05T06:11:25.104Z,99458.27
2018-09-05T06:13:54.057Z,99462.38
2018-09-05T06:16:23.232Z,99468.25
2018-09-05T06:18:52.215Z,99465.57
2018-09-05T06:21:21.180Z,99454.26
2018-09-05T06:23:50.280Z,99461.10
2018-09-05T06:26:19.241Z,99461.89
2018-09-05T06:28:48.461Z,99459.98
2018-09-05T06:31:17.670Z,99458.30
2018-09-05T06:33:46.610Z,99458.89
2018-09-05T06:36:15.663Z,99456.20
2018-09-05T06:38:44.650Z,99459.50
2018-09-05T06:41:13.688Z,99463.23
2018-09-05T06:43:42.673Z,99460.02
2018-09-05T06:46:11.640Z,99465.17
2018-09-05T06:48:40.873Z,99465.05
2018-09-05T06:51:09.903Z,99470.02
2018-09-05T06:53:39.909Z,99471.23
2018-09-05T06:56:09.023Z,99472.99
2018-09-05T06:58:38.142Z,99479.55
2018-09-05T07:01:07.177Z,99479.62
2018-09-05T07:03:36.340Z,99486.91
2018-09-05T07:06:05.324Z,99483.06
2018-09-05T07:08:34.322Z,99482.80
2018-09-05T07:11:03.338Z,99477.48
2018-09-05T07:13:32.305Z,99478.63
2018-09-05T07:16:01.272Z,99482.22
2018-09-05T07:18:30.477Z,99480.24
2018-09-05T07:21:05.679Z,99477.16
2018-09-05T07:23:29.023Z,99481.29
2018-09-05T07:25:58.040Z,99485.22
2018-09-05T07:28:27.129Z,99483.93
2018-09-05T07:30:56.232Z,99484.25
2018-09-05T07:33:25.229Z,99482.50
2018-09-05T07:35:54.366Z,99487.80
2018-09-05T07:38:23.392Z,99485.34
2018-09-05T07:40:52.504Z,99484.73
2018-09-05T07:43:21.573Z,99482.32
2018-09-05T07:45:50.590Z,99478.59
2018-09-05T07:48:19.729Z,99477.96
2018-09-05T07:50:48.775Z,99471.29
2018-09-05T07:53:17.817Z,99474.43
2018-09-05T07:55:46.767Z,99475.23
2018-09-05T07:58:15.809Z,99470.67
2018-09-05T08:00:44.907Z,99470.69
2018-09-05T08:03:13.920Z,99474.66
2018-09-05T08:05:42.917Z,99468.30
2018-09-05T08:08:11.921Z,99477.83
2018-09-05T08:10:40.930Z,99472.39
2018-09-05T08:13:09.960Z,99467.37
2018-09-05T08:15:39.028Z,99469.00
2018-09-05T08:18:08.098Z,99462.97
2018-09-05T08:20:37.171Z,99461.17
2018-09-05T08:23:06.340Z,99460.30
2018-09-05T08:25:35.466Z,99454.73
2018-09-05T08:28:04.477Z,99456.73
2018-09-05T08:30:33.499Z,99452.95
2018-09-05T08:33:02.492Z,99452.92
2018-09-05T08:35:31.768Z,99452.92
2018-09-05T08:38:00.999Z,99452.13
2018-09-05T08:40:29.836Z,99448.59
2018-09-05T08:42:58.832Z,99446.92
2018-09-05T08:45:28.392Z,99443.05
2018-09-05T08:47:56.882Z,99439.11
2018-09-05T08:50:25.969Z,99440.41
2018-09-05T08:52:55.089Z,99445.17
2018-09-05T08:55:24.205Z,99443.90
2018-09-05T08:57:53.260Z,99440.38
2018-09-05T09:00:22.225Z,99440.90
2018-09-05T09:02:51.409Z,99429.83
2018-09-05T09:05:20.370Z,99432.19
2018-09-05T09:07:49.425Z,99433.60
2018-09-05T09:10:18.575Z,99430.45
2018-09-05T09:12:47.688Z,99425.66
2018-09-05T09:15:16.728Z,99424.62
2018-09-05T09:17:45.788Z,99424.16
2018-09-05T09:20:14.836Z,99424.81
2018-09-05T09:22:43.911Z,99412.78
2018-09-05T09:25:12.950Z,99422.64
2018-09-05T09:27:42.028Z,99420.83
2018-09-05T09:30:11.066Z,99411.06
2018-09-05T09:32:40.130Z,99418.19
2018-09-05T09:35:09.484Z,99420.63
2018-09-05T09:37:38.424Z,99403.11
2018-09-05T09:40:07.556Z,99412.14
2018-09-05T09:42:36.532Z,99408.50
2018-09-05T09:45:05.640Z,99409.31
2018-09-05T09:47:34.683Z,99403.12
2018-09-05T09:50:03.721Z,99403.70
2018-09-05T09:52:36.801Z,99400.10
2018-09-05T09:55:06.841Z,99398.78
2018-09-05T09:57:36.014Z,99391.20
2018-09-05T10:00:05.385Z,99398.70
2018-09-05T10:03:43.195Z,99399.86
2018-09-05T10:06:21.771Z,99392.79
2018-09-05T10:08:56.847Z,99393.30
2018-09-05T10:11:30.930Z,99389.00
2018-09-05T10:14:04.856Z,99390.33
2018-09-05T10:16:44.123Z,99396.41
2018-09-05T10:19:13.689Z,99390.63
2018-09-05T10:21:42.850Z,99387.38
2018-09-05T10:24:11.797Z,99379.02
2018-09-05T10:26:40.825Z,99382.38
2018-09-05T10:29:10.091Z,99377.39
2018-09-05T10:31:39.214Z,99376.41
2018-09-05T10:34:08.694Z,99370.50
2018-09-05T10:36:37.695Z,99374.12
2018-09-05T10:39:09.430Z,99363.55
2018-09-05T10:41:38.740Z,99364.50
2018-09-05T10:44:08.162Z,99371.51
2018-09-05T10:46:37.565Z,99365.09
2018-09-05T10:49:07.086Z,99362.78
2018-09-05T10:51:41.193Z,99360.17
2018-09-05T10:54:10.260Z,99363.34
2018-09-05T10:56:39.341Z,99354.05
2018-09-05T10:59:08.384Z,99355.11
2018-09-05T11:01:37.497Z,99357.89
2018-09-05T11:04:06.795Z,99349.34
2018-09-05T11:06:35.792Z,99348.89
2018-09-05T11:09:06.691Z,99343.51
2018-09-05T11:11:35.756Z,99333.61
2018-09-05T11:14:05.149Z,99335.62
2018-09-05T11:16:34.211Z,99329.22
2018-09-05T11:19:03.651Z,99329.21
2018-09-05T11:21:33.152Z,99323.69
2018-09-05T11:24:02.244Z,99314.02
2018-09-05T11:26:31.216Z,99314.45
2018-09-05T11:29:00.813Z,99316.07
2018-09-05T11:31:29.767Z,99315.25
2018-09-05T11:33:58.772Z,99317.61
2018-09-05T11:36:27.755Z,99310.48
2018-09-05T11:38:56.854Z,99307.73
2018-09-05T11:41:25.998Z,99314.75
2018-09-05T11:43:55.134Z,99313.71
2018-09-05T11:46:24.752Z,99308.05
2018-09-05T11:48:53.720Z,99307.93
2018-09-05T11:51:22.737Z,99304.84
2018-09-05T11:53:51.751Z,99298.70
2018-09-05T11:56:20.718Z,99300.58
2018-09-05T11:58:49.765Z,99286.95
2018-09-05T12:01:18.804Z,99276.75
2018-09-05T12:03:47.861Z,99280.09
2018-09-05T12:06:16.897Z,99283.91
2018-09-05T12:08:45.905Z,99275.73
2018-09-05T12:11:14.906Z,99278.05
2018-09-05T12:13:44.025Z,99269.27
2018-09-05T12:16:13.062Z,99272.50
2018-09-05T12:18:43.121Z,99270.79
2018-09-05T12:21:12.164Z,99277.55
2018-09-05T12:23:41.297Z,99284.53
2018-09-05T12:26:10.378Z,99280.67
2018-09-05T12:28:39.468Z,99281.55
2018-09-05T12:31:08.492Z,99274.25
2018-09-05T12:33:38.015Z,99279.09
2018-09-05T12:36:08.746Z,99277.81
2018-09-05T12:38:38.317Z,99270.37
2018-09-05T12:41:07.373Z,99258.70
2018-09-05T12:43:36.445Z,99259.88
2018-09-05T12:46:05.501Z,99257.41
2018-09-05T12:48:34.573Z,99250.87
2018-09-05T12:51:03.708Z,99249.55
2018-09-05T12:53:32.640Z,99244.39
2018-09-05T12:56:01.659Z,99255.66
2018-09-05T12:58:30.672Z,99255.49
2018-09-05T13:00:59.793Z,99251.58
2018-09-05T13:03:28.980Z,99247.34
2018-09-05T13:05:58.314Z,99248.09
2018-09-05T13:08:27.275Z,99252.08
2018-09-05T13:10:56.310Z,99259.44
2018-09-05T13:13:25.272Z,99252.62
2018-09-05T13:15:54.408Z,99242.92
2018-09-05T13:18:23.461Z,99249.84
2018-09-05T13:20:52.612Z,99241.14
2018-09-05T13:23:21.584Z,99255.25
2018-09-05T13:25:50.594Z,99258.41
2018-09-05T13:28:19.665Z,99252.92
2018-09-05T13:30:48.730Z,99247.84
2018-09-05T13:33:17.732Z,99252.25
2018-09-05T13:35:47.034Z,99242.69
2018-09-05T13:38:16.048Z,99249.20
2018-09-05T13:40:45.417Z,99241.77
2018-09-05T13:43:14.422Z,99240.41
2018-09-05T13:45:43.382Z,99230.94
2018-09-05T13:48:12.340Z,99230.61
2018-09-05T13:50:41.395Z,99232.77
2018-09-05T13:53:10.540Z,99240.83
2018-09-05T13:55:39.503Z,99249.55
2018-09-05T13:58:08.516Z,99252.30
2018-09-05T14:00:37.552Z,99253.76
2018-09-05T14:03:06.506Z,99253.16
2018-09-05T14:05:35.601Z,99251.00
2018-09-05T14:08:04.644Z,99257.52
2018-09-05T14:10:33.674Z,99255.89
2018-09-05T14:13:02.727Z,99271.67
2018-09-05T14:15:31.744Z,99286.05
2018-09-05T14:18:00.842Z,99297.83
2018-09-05T14:20:29.973Z,99303.14
2018-09-05T14:22:59.029Z,99305.80
2018-09-05T14:25:28.078Z,99320.55
2018-09-05T14:27:57.129Z,99326.34
2018-09-05T14:30:26.226Z,99320.86
2018-09-05T14:32:55.196Z,99304.42
2018-09-05T14:35:24.237Z,99289.34
2018-09-05T14:37:53.310Z,99287.09
2018-09-05T14:40:22.324Z,99277.92
2018-09-05T14:42:51.504Z,99272.18
2018-09-05T14:45:20.504Z,99277.84
2018-09-05T14:47:49.542Z,99274.12
2018-09-05T14:50:18.732Z,99274.33
2018-09-05T14:52:47.701Z,99285.24
2018-09-05T14:55:16.758Z,99273.55
2018-09-05T14:57:45.784Z,99280.91
2018-09-05T15:00:14.813Z,99288.80
2018-09-05T15:02:43.832Z,99304.83
2018-09-05T15:05:12.817Z,99314.38
2018-09-05T15:07:45.970Z,99316.27
2018-09-05T15:10:14.965Z,99342.61
2018-09-05T15:12:44.337Z,99358.88
2018-09-05T15:15:13.664Z,99382.07
2018-09-05T15:17:42.714Z,99361.64
2018-09-05T15:20:11.976Z,99351.05
2018-09-05T15:22:41.661Z,99348.39
2018-09-05T15:25:10.807Z,99334.52
2018-09-05T15:27:39.908Z,99337.54
2018-09-05T15:30:09.731Z,99324.79
2018-09-05T15:32:40.290Z,99317.39
2018-09-05T15:35:09.276Z,99314.72
2018-09-05T15:37:38.299Z,99317.91
2018-09-05T15:40:07.390Z,99322.00
2018-09-05T15:42:36.509Z,99323.66
2018-09-05T15:45:05.817Z,99333.40
2018-09-05T15:47:34.828Z,99339.83
2018-09-05T15:50:03.898Z,99356.09
2018-09-05T15:52:32.935Z,99357.09
2018-09-05T15:55:01.930Z,99363.13
2018-09-05T15:57:31.256Z,99352.70
2018-09-05T16:00:00.422Z,99342.14
2018-09-05T16:02:29.597Z,99340.02
2018-09-05T16:04:58.586Z,99329.70
2018-09-05T16:07:27.566Z,99321.58
2018-09-05T16:09:56.653Z,99321.29
2018-09-05T16:12:25.648Z,99317.48
2018-09-05T16:14:54.644Z,99312.27
2018-09-05T16:17:23.654Z,99307.59
2018-09-05T16:19:52.629Z,99301.06
2018-09-05T16:22:21.686Z,99304.93
2018-09-05T16:24:50.668Z,99308.86
2018-09-05T16:27:19.681Z,99310.02
2018-09-05T16:29:48.796Z,99314.95
2018-09-05T16:32:17.801Z,99318.75
2018-09-05T16:34:46.870Z,99322.31
2018-09-05T16:37:15.901Z,99327.52
2018-09-05T16:39:44.912Z,99335.41
2018-09-05T16:42:13.949Z,99334.23
2018-09-05T16:44:43.036Z,99345.41
2018-09-05T16:47:12.164Z,99347.02
2018-09-05T16:49:41.246Z,99345.49
2018-09-05T16:52:11.084Z,99351.88
2018-09-05T16:54:40.119Z,99357.62
2018-09-05T16:57:09.153Z,99367.16
2018-09-05T16:59:38.184Z,99366.69
2018-09-05T17:02:07.188Z,99355.01
2018-09-05T17:04:36.188Z,99350.41
2018-09-05T17:07:05.220Z,99356.73
2018-09-05T17:09:34.230Z,99357.27
2018-09-05T17:12:03.374Z,99355.67
2018-09-05T17:14:32.387Z,99351.09
2018-09-05T17:17:01.373Z,99357.62
2018-09-05T17:19:30.392Z,99371.25
2018-09-05T17:21:59.425Z,99371.08
2018-09-05T17:24:28.535Z,99368.77
2018-09-05T17:26:57.632Z,99368.70
2018-09-05T17:29:26.647Z,99373.33
2018-09-05T17:31:55.640Z,99364.81
2018-09-05T17:34:24.729Z,99362.43
2018-09-05T17:36:53.769Z,99362.78
2018-09-05T17:39:22.748Z,99365.75
2018-09-05T17:41:51.993Z,99370.37
2018-09-05T17:44:21.055Z,99376.70
2018-09-05T17:46:50.015Z,99380.57
2018-09-05T17:49:19.190Z,99380.57
2018-09-05T17:51:48.216Z,99370.79
2018-09-05T17:54:17.307Z,99367.53
2018-09-05T17:56:46.444Z,99364.16
2018-09-05T17:59:15.537Z,99364.14
2018-09-05T18:01:44.704Z,99356.92
2018-09-05T18:04:13.685Z,99350.63
2018-09-05T18:06:42.688Z,99355.97
2018-09-05T18:09:12.337Z,99353.94
2018-09-05T18:11:41.379Z,99347.61
2018-09-05T18:14:10.617Z,99352.77
2018-09-05T18:16:39.600Z,99349.13
2018-09-05T18:19:08.602Z,99346.65
2018-09-05T18:21:37.630Z,99355.86
2018-09-05T18:24:06.709Z,99358.31
2018-09-05T18:26:35.764Z,99362.80
2018-09-05T18:29:04.761Z,99370.35
2018-09-05T18:31:33.930Z,99376.63
2018-09-05T18:34:03.349Z,99384.27
2018-09-05T18:36:32.372Z,99382.25
2018-09-05T18:39:01.484Z,99384.45
2018-09-05T18:41:30.601Z,99384.38
2018-09-05T18:43:59.589Z,99380.19
2018-09-05T18:46:28.624Z,99373.55
2018-09-05T18:48:58.598Z,99381.72
2018-09-05T18:51:27.656Z,99379.50
2018-09-05T18:53:56.743Z,99374.05
2018-09-05T18:56:26.032Z,99384.73
2018-09-05T18:58:55.192Z,99383.14
2018-09-05T19:01:24.196Z,99386.10
2018-09-05T19:03:53.229Z,99380.66
2018-09-05T19:06:22.249Z,99388.05
2018-09-05T19:08:51.266Z,99385.80
2018-09-05T19:11:20.377Z,99394.42
2018-09-05T19:13:49.534Z,99392.26
2018-09-05T19:16:18.661Z,99401.02
2018-09-05T19:18:47.648Z,99396.11
2018-09-05T19:21:16.616Z,99395.28
2018-09-05T19:23:45.639Z,99404.81
2018-09-05T19:26:14.716Z,99407.53
2018-09-05T19:28:43.668Z,99404.87
2018-09-05T19:31:12.700Z,99409.02
2018-09-05T19:33:41.780Z,99403.27
2018-09-05T19:36:10.762Z,99404.87
2018-09-05T19:38:39.807Z,99399.48
2018-09-05T19:41:08.783Z,99401.44
2018-09-05T19:43:38.093Z,99403.03
2018-09-05T19:46:07.170Z,99399.36
2018-09-05T19:48:36.204Z,99397.14
2018-09-05T19:51:05.212Z,99393.36
2018-09-05T19:53:34.247Z,99403.03
2018-09-05T19:56:03.409Z,99396.14
2018-09-05T19:58:32.373Z,99401.38
2018-09-05T20:01:01.470Z,99400.69
2018-09-05T20:03:30.500Z,99400.92
2018-09-05T20:05:59.601Z,99401.98
2018-09-05T20:08:28.662Z,99397.16
2018-09-05T20:10:57.681Z,99393.97
2018-09-05T20:13:26.670Z,99403.97
2018-09-05T20:15:55.695Z,99402.01
2018-09-05T20:18:24.757Z,99394.44
2018-09-05T20:20:53.789Z,99398.13
2018-09-05T20:23:22.855Z,99400.42
2018-09-05T20:25:51.942Z,99400.42
2018-09-05T20:28:20.965Z,99394.36
2018-09-05T20:30:50.068Z,99396.39
2018-09-05T20:33:19.025Z,99397.38
2018-09-05T20:35:48.126Z,99394.49
2018-09-05T20:38:17.096Z,99398.28
2018-09-05T20:40:46.149Z,99400.17
2018-09-05T20:43:15.204Z,99405.38
2018-09-05T20:45:44.276Z,99399.41
2018-09-05T20:48:13.310Z,99401.46
2018-09-05T20:50:42.385Z,99400.27
2018-09-05T20:53:11.445Z,99398.34
2018-09-05T20:55:40.526Z,99404.19
2018-09-05T20:58:09.710Z,99406.44
2018-09-05T21:00:38.813Z,99409.19
2018-09-05T21:03:07.784Z,99403.14
2018-09-05T21:05:36.811Z,99406.77
2018-09-05T21:08:05.784Z,99411.30
2018-09-05T21:10:34.786Z,99406.31
2018-09-05T21:13:03.801Z,99413.84
2018-09-05T21:15:32.840Z,99418.84
2018-09-05T21:18:01.967Z,99411.20
2018-09-05T21:20:31.000Z,99415.94
2018-09-05T21:23:00.013Z,99405.41
2018-09-05T21:25:28.991Z,99405.23
2018-09-05T21:27:58.068Z,99398.98
2018-09-05T21:30:27.088Z,99390.13
2018-09-05T21:32:56.132Z,99383.08
2018-09-05T21:35:25.080Z,99377.02
2018-09-05T21:37:54.185Z,99380.48
2018-09-05T21:40:23.216Z,99367.34
2018-09-05T21:42:52.164Z,99376.19
2018-09-05T21:45:21.293Z,99366.80
2018-09-05T21:47:50.289Z,99368.78
2018-09-05T21:50:19.341Z,99366.53
2018-09-05T21:52:48.331Z,99366.38
2018-09-05T21:55:17.417Z,99367.55
2018-09-05T21:57:46.473Z,99367.28
2018-09-05T22:00:15.545Z,99369.05
2018-09-05T22:02:44.700Z,99367.92
2018-09-05T22:05:13.716Z,99364.66
2018-09-05T22:07:42.764Z,99367.28
2018-09-05T22:10:11.711Z,99355.89
2018-09-05T22:12:40.717Z,99348.33
2018-09-05T22:15:09.693Z,99350.75
2018-09-05T22:17:39.235Z,99343.55
2018-09-05T22:20:08.252Z,99336.63
2018-09-05T22:22:37.205Z,99337.59
2018-09-05T22:25:06.284Z,99332.33
2018-09-05T22:27:35.301Z,99328.61
2018-09-05T22:30:04.425Z,99326.62
2018-09-05T22:32:33.433Z,99327.92
2018-09-05T22:35:02.428Z,99327.83
2018-09-05T22:37:31.409Z,99335.02
2018-09-05T22:40:00.416Z,99330.47
2018-09-05T22:42:29.465Z,99331.91
2018-09-05T22:45:09.340Z,99335.32
2018-09-05T22:47:53.180Z,99336.84
2018-09-05T22:52:21.942Z,99335.12
2018-09-05T22:59:09.726Z,99336.53
2018-09-05T23:04:26.485Z,99345.48
2018-09-05T23:07:07.685Z,99351.50
2018-09-05T23:09:47.751Z,99348.48
2018-09-05T23:12:27.611Z,99353.61
2018-09-05T23:15:07.610Z,99347.72
2018-09-05T23:17:47.629Z,99347.03
2018-09-05T23:21:22.786Z,99346.80
2018-09-05T23:24:08.367Z,99347.49
2018-09-05T23:26:37.343Z,99345.00
2018-09-05T23:29:06.379Z,99344.48
2018-09-05T23:31:35.499Z,99346.29
2018-09-05T23:34:04.482Z,99350.03
2018-09-05T23:36:33.555Z,99350.33
2018-09-05T23:39:02.709Z,99354.70
2018-09-05T23:41:31.850Z,99351.91
2018-09-05T23:44:00.905Z,99361.42
2018-09-05T23:46:29.874Z,99367.09
2018-09-05T23:48:58.954Z,99371.61
2018-09-05T23:51:27.919Z,99377.58
2018-09-05T23:53:56.890Z,99373.98
2018-09-05T23:56:26.085Z,99372.62
2018-09-05T23:58:55.070Z,99378.41
